Time;durP1;ratioP1;P1;durP2;ratioP2;P2;SDS_P1;SDS_P2;PMS_P1;PMS_P2;Temp;Humidity;BMP_temperature;BMP_pressure;BME280_temperature;BME280_humidity;BME280_pressure;Samples;Min_cycle;Max_cycle;Signal;HPM_P1;HPM_P2
2023/08/29 00:02:17;;;;;;;13.65;11.80;;;;;14.40;100765.00;;;;10439179;27;20765;-78
2023/08/29 00:07:18;;;;;;;15.85;12.10;;;;;14.30;100766.00;;;;10439948;27;20219;-78
2023/08/29 00:12:20;;;;;;;17.37;12.50;;;;;14.20;100749.00;;;;10437931;27;21426;-78
2023/08/29 00:17:22;;;;;;;12.65;11.35;;;;;14.10;100754.00;;;;10419443;27;20531;-77
2023/08/29 00:22:24;;;;;;;14.57;11.83;;;;;14.00;100757.00;;;;10438707;27;20261;-78
2023/08/29 00:27:25;;;;;;;16.33;12.57;;;;;14.00;100748.00;;;;10440132;27;20216;-77
2023/08/29 00:32:26;;;;;;;14.50;11.97;;;;;13.90;100729.00;;;;10418549;27;20246;-78
2023/08/29 00:37:27;;;;;;;14.70;11.60;;;;;13.90;100744.00;;;;10419896;28;20220;-78
2023/08/29 00:42:29;;;;;;;14.03;11.80;;;;;13.80;100738.00;;;;10418915;28;20224;-78
2023/08/29 00:47:31;;;;;;;15.77;12.53;;;;;13.70;100737.00;;;;10418843;27;20585;-78
2023/08/29 00:52:32;;;;;;;13.83;12.07;;;;;13.60;100732.00;;;;10424964;27;20208;-78
2023/08/29 00:57:34;;;;;;;19.53;12.03;;;;;13.50;100739.00;;;;10421191;27;20200;-78
2023/08/29 01:02:35;;;;;;;13.60;10.43;;;;;13.40;100731.00;;;;10445461;27;20572;-76
2023/08/29 01:07:36;;;;;;;15.20;11.30;;;;;13.30;100733.00;;;;10438260;27;20621;-76
2023/08/29 01:13:09;;;;;;;14.40;11.90;;;;;13.20;100733.00;;;;10426294;27;20775;-76
2023/08/29 01:18:12;;;;;;;16.43;12.03;;;;;13.10;100729.00;;;;10437982;27;20724;-77
2023/08/29 01:23:14;;;;;;;18.20;11.73;;;;;13.00;100731.00;;;;10408707;27;20217;-76
2023/08/29 01:28:19;;;;;;;14.97;12.47;;;;;13.00;100736.00;;;;10424942;27;20203;-77
2023/08/29 01:33:20;;;;;;;15.67;11.83;;;;;12.90;100737.00;;;;10440349;27;20244;-76
2023/08/29 01:38:22;;;;;;;17.40;13.13;;;;;12.80;100742.00;;;;10410672;27;21673;-76
2023/08/29 01:43:23;;;;;;;20.00;14.07;;;;;12.80;100747.00;;;;10441264;27;21438;-77
2023/08/29 01:48:26;;;;;;;15.73;13.40;;;;;12.70;100751.00;;;;10440304;27;20208;-76
2023/08/29 01:53:28;;;;;;;14.70;13.13;;;;;12.70;100739.00;;;;10421944;27;20785;-76
2023/08/29 01:58:29;;;;;;;14.77;13.23;;;;;12.60;100748.00;;;;10423715;27;20234;-76
2023/08/29 02:03:31;;;;;;;18.70;15.03;;;;;12.60;100740.00;;;;10424220;27;20224;-76
2023/08/29 02:08:32;;;;;;;17.33;13.67;;;;;12.60;100748.00;;;;10404332;27;20247;-76
2023/08/29 02:13:33;;;;;;;22.90;16.00;;;;;12.60;100743.00;;;;10440817;27;20238;-76
2023/08/29 02:18:35;;;;;;;14.87;12.80;;;;;12.50;100749.00;;;;10420716;27;20634;-76
2023/08/29 02:23:37;;;;;;;19.10;13.97;;;;;12.50;100751.00;;;;10424129;28;21560;-76
2023/08/29 02:28:39;;;;;;;22.07;16.27;;;;;12.40;100745.00;;;;10403734;27;20208;-76
2023/08/29 02:33:40;;;;;;;22.57;16.83;;;;;12.40;100754.00;;;;10424880;27;20570;-77
2023/08/29 02:38:41;;;;;;;21.30;16.60;;;;;12.30;100751.00;;;;10435453;27;20198;-76
2023/08/29 02:43:43;;;;;;;24.80;17.90;;;;;12.30;100746.00;;;;10438378;28;20264;-76
2023/08/29 02:48:44;;;;;;;27.97;20.00;;;;;12.30;100746.00;;;;10439035;27;20200;-76
2023/08/29 02:53:46;;;;;;;24.17;18.67;;;;;12.30;100755.00;;;;10422360;27;20208;-77
2023/08/29 02:58:47;;;;;;;24.50;16.70;;;;;12.30;100753.00;;;;10438086;27;20204;-77
2023/08/29 03:03:48;;;;;;;25.10;18.60;;;;;12.30;100775.00;;;;10422072;27;20338;-76
2023/08/29 03:08:51;;;;;;;25.80;19.33;;;;;12.50;100766.00;;;;10403335;27;20303;-76
2023/08/29 03:13:53;;;;;;;25.50;18.80;;;;;12.60;100753.00;;;;10423369;27;20658;-76
2023/08/29 03:18:55;;;;;;;23.67;17.53;;;;;12.70;100743.00;;;;10439076;27;20200;-77
2023/08/29 03:23:56;;;;;;;22.20;17.63;;;;;12.80;100744.00;;;;10438831;27;20890;-76
2023/08/29 03:28:58;;;;;;;24.07;17.80;;;;;12.90;100735.00;;;;10419004;27;20212;-76
2023/08/29 03:33:59;;;;;;;22.30;17.47;;;;;12.90;100734.00;;;;10402839;27;20288;-76
2023/08/29 03:39:02;;;;;;;22.17;17.07;;;;;13.00;100724.00;;;;10436556;27;20216;-77
2023/08/29 03:44:05;;;;;;;25.90;18.93;;;;;13.00;100729.00;;;;10419106;27;20302;-75
2023/08/29 03:49:06;;;;;;;24.23;19.23;;;;;13.10;100740.00;;;;10437269;27;20204;-76
2023/08/29 03:54:07;;;;;;;23.87;19.50;;;;;13.00;100727.00;;;;10401838;27;20258;-76
2023/08/29 03:59:09;;;;;;;23.43;19.57;;;;;13.00;100726.00;;;;10417773;27;20613;-76
2023/08/29 04:04:10;;;;;;;24.53;20.53;;;;;12.90;100719.00;;;;10439189;27;20224;-76
2023/08/29 04:09:14;;;;;;;29.83;21.13;;;;;13.00;100725.00;;;;10418851;28;20266;-77
2023/08/29 04:14:15;;;;;;;25.47;20.07;;;;;13.00;100724.00;;;;10402235;28;20623;-76
2023/08/29 04:19:17;;;;;;;37.93;24.50;;;;;13.00;100730.00;;;;10401583;27;20699;-76
2023/08/29 04:24:18;;;;;;;33.17;24.87;;;;;13.10;100730.00;;;;10402810;27;20912;-77
2023/08/29 04:29:19;;;;;;;33.20;22.87;;;;;13.10;100725.00;;;;10445034;27;20295;-76
2023/08/29 04:34:23;;;;;;;31.27;23.17;;;;;13.20;100726.00;;;;10445806;27;20208;-76
2023/08/29 04:39:24;;;;;;;34.67;24.27;;;;;13.20;100712.00;;;;10409590;27;20398;-76
2023/08/29 04:44:26;;;;;;;33.00;23.77;;;;;13.10;100715.00;;;;10425835;27;20659;-77
2023/08/29 04:49:27;;;;;;;35.77;26.40;;;;;13.20;100703.00;;;;10442645;28;20827;-75
2023/08/29 04:54:29;;;;;;;38.33;27.70;;;;;13.20;100705.00;;;;10425847;28;20608;-76
2023/08/29 04:59:31;;;;;;;36.07;25.73;;;;;13.30;100710.00;;;;10424639;27;20207;-77
2023/08/29 05:04:34;;;;;;;39.43;25.83;;;;;13.40;100703.00;;;;10425944;27;20212;-76
2023/08/29 05:09:36;;;;;;;36.00;25.50;;;;;13.40;100702.00;;;;10423639;27;20230;-77
2023/08/29 05:14:38;;;;;;;40.67;27.50;;;;;13.40;100693.00;;;;10429152;27;20287;-76
2023/08/29 05:19:40;;;;;;;39.83;27.43;;;;;13.40;100698.00;;;;10469100;28;20204;-76
2023/08/29 05:24:42;;;;;;;41.00;27.17;;;;;13.50;100700.00;;;;10459733;27;20239;-76
2023/08/29 05:29:43;;;;;;;42.97;27.43;;;;;13.50;100702.00;;;;10453779;27;20211;-77
2023/08/29 05:34:44;;;;;;;40.43;26.03;;;;;13.40;100706.00;;;;10411503;28;20589;-77
2023/08/29 05:39:46;;;;;;;38.60;26.13;;;;;13.40;100707.00;;;;10431175;28;21008;-77
2023/08/29 05:44:47;;;;;;;38.03;26.67;;;;;13.50;100711.00;;;;10446760;27;20563;-77
2023/08/29 05:49:48;;;;;;;44.50;28.23;;;;;13.60;100705.00;;;;10442044;27;20293;-77
2023/08/29 05:54:49;;;;;;;45.87;29.60;;;;;13.70;100709.00;;;;10423304;27;20283;-77
2023/08/29 05:59:51;;;;;;;46.17;32.50;;;;;13.80;100711.00;;;;10440849;27;21513;-76
2023/08/29 06:04:52;;;;;;;48.67;31.80;;;;;14.00;100707.00;;;;10448805;27;20763;-77
2023/08/29 06:09:53;;;;;;;53.60;35.30;;;;;14.10;100697.00;;;;10425638;27;20659;-77
2023/08/29 06:14:54;;;;;;;56.05;37.45;;;;;14.30;100702.00;;;;10443660;27;20281;-77
2023/08/29 06:19:56;;;;;;;53.55;35.92;;;;;14.40;100702.00;;;;10445897;27;20222;-77
2023/08/29 06:24:57;;;;;;;58.70;37.15;;;;;14.60;100700.00;;;;10442632;27;20844;-77
2023/08/29 06:29:59;;;;;;;58.70;37.42;;;;;14.80;100705.00;;;;10445418;27;20264;-77
2023/08/29 06:35:00;;;;;;;62.53;37.90;;;;;14.90;100705.00;;;;10415812;27;20903;-77
2023/08/29 06:40:04;;;;;;;49.17;35.73;;;;;15.20;100706.00;;;;10432621;27;20208;-78
2023/08/29 06:45:06;;;;;;;50.95;32.63;;;;;15.20;100714.00;;;;10449043;27;20228;-78
2023/08/29 06:50:08;;;;;;;43.05;30.95;;;;;15.20;100713.00;;;;10448373;27;20692;-78
2023/08/29 06:55:09;;;;;;;48.65;32.40;;;;;15.30;100715.00;;;;10430610;27;20239;-76
2023/08/29 07:00:12;;;;;;;43.38;32.22;;;;;15.60;100715.00;;;;10410470;27;20200;-78
2023/08/29 07:05:14;;;;;;;37.30;28.85;;;;;15.90;100724.00;;;;10413900;27;20212;-77
2023/08/29 07:10:16;;;;;;;35.50;26.67;;;;;15.80;100713.00;;;;10448534;27;20224;-77
2023/08/29 07:15:18;;;;;;;40.20;27.65;;;;;16.10;100717.00;;;;10430046;28;20238;-77
2023/08/29 07:20:19;;;;;;;33.97;25.83;;;;;16.30;100714.00;;;;10432817;27;20212;-77
2023/08/29 07:25:35;;;;;;;29.92;25.30;;;;;16.40;100715.00;;;;10428543;28;20309;-77
2023/08/29 07:30:45;;;;;;;31.65;23.75;;;;;16.50;100711.00;;;;10417925;27;20327;-77
2023/08/29 07:35:48;;;;;;;35.00;24.38;;;;;16.60;100716.00;;;;10414471;27;20207;-77
2023/08/29 07:40:49;;;;;;;27.33;21.85;;;;;16.90;100717.00;;;;10429413;27;20287;-76
2023/08/29 07:45:52;;;;;;;27.98;21.52;;;;;17.10;100717.00;;;;10432358;27;20289;-77
2023/08/29 07:50:54;;;;;;;25.65;20.15;;;;;17.30;100715.00;;;;10429380;27;20200;-78
2023/08/29 07:55:55;;;;;;;26.77;20.40;;;;;17.30;100716.00;;;;10448307;27;20230;-77
2023/08/29 08:00:57;;;;;;;22.95;18.80;;;;;17.40;100721.00;;;;10431099;27;20712;-78
2023/08/29 08:05:58;;;;;;;22.67;17.15;;;;;17.40;100722.00;;;;10454373;27;20338;-77
2023/08/29 08:10:59;;;;;;;20.20;16.27;;;;;17.60;100720.00;;;;10452674;27;21767;-77
2023/08/29 08:16:01;;;;;;;16.10;14.25;;;;;17.80;100725.00;;;;10432480;27;20208;-77
2023/08/29 08:21:06;;;;;;;17.00;12.85;;;;;18.10;100720.00;;;;10435384;27;21184;-78
2023/08/29 08:26:07;;;;;;;14.35;12.55;;;;;18.20;100729.00;;;;10439164;27;20300;-78
2023/08/29 08:31:09;;;;;;;14.77;12.35;;;;;18.30;100721.00;;;;10452953;27;20423;-78
2023/08/29 08:36:10;;;;;;;17.50;12.68;;;;;18.60;100718.00;;;;10438940;27;20215;-78
2023/08/29 08:41:12;;;;;;;16.65;12.32;;;;;18.80;100717.00;;;;10435873;28;21992;-78
2023/08/29 08:46:16;;;;;;;11.98;10.23;;;;;19.00;100711.00;;;;10452661;27;20219;-77
2023/08/29 08:51:19;;;;;;;10.75;9.65;;;;;19.00;100714.00;;;;10455155;27;20212;-78
2023/08/29 08:56:22;;;;;;;10.63;9.50;;;;;19.10;100712.00;;;;10453225;27;20293;-78
2023/08/29 09:01:24;;;;;;;9.50;8.50;;;;;19.40;100714.00;;;;10456274;27;20447;-78
2023/08/29 09:06:25;;;;;;;7.05;6.35;;;;;19.70;100717.00;;;;10433818;27;20374;-77
2023/08/29 09:11:26;;;;;;;9.70;6.95;;;;;19.80;100715.00;;;;10450215;27;20200;-78
2023/08/29 09:16:28;;;;;;;6.97;6.28;;;;;19.70;100711.00;;;;10439091;27;20373;-78
2023/08/29 09:21:29;;;;;;;7.80;5.72;;;;;19.70;100714.00;;;;10455178;27;20214;-78
2023/08/29 09:26:32;;;;;;;5.72;4.82;;;;;20.10;100711.00;;;;10455903;27;20301;-78
2023/08/29 09:31:33;;;;;;;6.40;5.10;;;;;20.70;100716.00;;;;10457172;27;20755;-78
2023/08/29 09:36:35;;;;;;;8.27;3.45;;;;;20.80;100718.00;;;;10454775;27;21443;-78
2023/08/29 09:41:36;;;;;;;5.00;3.60;;;;;20.30;100717.00;;;;10418891;27;20621;-77
2023/08/29 09:46:43;;;;;;;7.13;3.30;;;;;20.10;100717.00;;;;10454537;27;20233;-76
2023/08/29 09:51:45;;;;;;;5.68;3.60;;;;;20.20;100715.00;;;;10438107;28;20480;-78
2023/08/29 09:56:47;;;;;;;6.07;3.45;;;;;20.60;100705.00;;;;10422566;27;20275;-78
2023/08/29 10:01:51;;;;;;;6.03;4.18;;;;;20.90;100712.00;;;;10452441;27;20494;-78
2023/08/29 10:06:56;;;;;;;5.30;4.80;;;;;21.10;100706.00;;;;10450903;27;20220;-78
2023/08/29 10:11:58;;;;;;;6.28;4.45;;;;;21.20;100714.00;;;;10454723;27;20295;-78
2023/08/29 10:17:01;;;;;;;7.88;4.57;;;;;21.50;100707.00;;;;10453925;27;20284;-78
2023/08/29 10:22:09;;;;;;;8.43;4.00;;;;;22.00;100695.00;;;;10435023;27;20285;-77
2023/08/29 10:27:11;;;;;;;5.72;4.05;;;;;22.50;100688.00;;;;10434043;27;20258;-79
2023/08/29 10:32:13;;;;;;;5.30;3.42;;;;;23.60;100689.00;;;;10426296;27;20631;-79
2023/08/29 10:37:18;;;;;;;4.75;3.05;;;;;24.60;100684.00;;;;10434418;27;20200;-77
2023/08/29 10:42:20;;;;;;;3.58;2.28;;;;;24.70;100685.00;;;;10441339;27;20243;-78
2023/08/29 10:47:31;;;;;;;2.80;1.67;;;;;24.60;100677.00;;;;10441679;27;20279;-78
2023/08/29 10:52:39;;;;;;;1.60;1.50;;;;;25.60;100669.00;;;;10440956;27;20216;-79
2023/08/29 10:57:42;;;;;;;2.75;1.98;;;;;26.30;100666.00;;;;10408895;27;20511;-79
2023/08/29 11:02:43;;;;;;;2.38;1.40;;;;;26.80;100669.00;;;;10427138;27;20750;-80
2023/08/29 11:07:45;;;;;;;1.95;1.33;;;;;26.90;100658.00;;;;10443392;27;20224;-79
2023/08/29 11:13:09;;;;;;;2.03;1.02;;;;;26.30;100660.00;;;;10415283;27;20204;-79
2023/08/29 11:18:34;;;;;;;2.88;1.40;;;;;26.20;100648.00;;;;10424950;27;20204;-79
2023/08/29 11:23:38;;;;;;;2.00;1.02;;;;;24.60;100648.00;;;;10405695;27;20234;-78
2023/08/29 11:28:45;;;;;;;2.28;1.02;;;;;24.60;100640.00;;;;10440220;27;20223;-78
2023/08/29 11:33:47;;;;;;;2.45;1.00;;;;;24.80;100632.00;;;;10441729;27;20212;-79
2023/08/29 11:38:48;;;;;;;3.45;1.50;;;;;25.60;100639.00;;;;10422714;27;20270;-79
2023/08/29 11:43:55;;;;;;;1.17;1.08;;;;;25.30;100648.00;;;;10444645;27;20364;-79
2023/08/29 11:49:17;;;;;;;1.63;0.93;;;;;24.70;100637.00;;;;10442510;27;20258;-78
2023/08/29 11:54:39;;;;;;;3.83;1.10;;;;;24.20;100632.00;;;;10422644;27;20224;-78
2023/08/29 11:59:42;;;;;;;4.78;1.10;;;;;23.80;100622.00;;;;10443331;27;20218;-79
2023/08/29 12:04:45;;;;;;;4.43;1.25;;;;;23.50;100630.00;;;;10432272;27;20346;-79
2023/08/29 12:09:48;;;;;;;3.00;1.83;;;;;24.30;100621.00;;;;10442272;27;20288;-79
2023/08/29 12:14:52;;;;;;;2.13;1.38;;;;;25.00;100615.00;;;;10460715;27;20220;-79
2023/08/29 12:19:53;;;;;;;1.73;1.20;;;;;25.90;100623.00;;;;10445183;27;20826;-79
2023/08/29 12:24:55;;;;;;;2.38;1.60;;;;;25.40;100614.00;;;;10466754;27;20207;-79
2023/08/29 12:29:57;;;;;;;2.53;1.38;;;;;24.90;100600.00;;;;10450620;28;20951;-79
2023/08/29 12:34:58;;;;;;;1.38;1.00;;;;;24.60;100607.00;;;;10466705;27;20227;-79
2023/08/29 12:40:04;;;;;;;1.55;1.27;;;;;24.30;100599.00;;;;10460845;27;21823;-79
2023/08/29 12:45:07;;;;;;;1.38;1.30;;;;;24.20;100595.00;;;;10455680;27;20830;-78
2023/08/29 12:50:09;;;;;;;3.63;1.73;;;;;24.10;100588.00;;;;10422919;27;20204;-78
2023/08/29 12:55:12;;;;;;;2.25;1.23;;;;;23.80;100579.00;;;;10429080;27;20219;-78
2023/08/29 13:00:13;;;;;;;3.28;2.53;;;;;23.20;100573.00;;;;10427107;28;21164;-78
2023/08/29 13:05:15;;;;;;;2.58;2.38;;;;;23.10;100581.00;;;;10450024;27;20428;-78
2023/08/29 13:10:16;;;;;;;3.58;2.67;;;;;22.90;100581.00;;;;10429025;27;20231;-79
2023/08/29 13:15:18;;;;;;;3.63;2.42;;;;;22.70;100596.00;;;;10444147;27;20220;-78
2023/08/29 13:20:20;;;;;;;4.45;2.63;;;;;22.50;100591.00;;;;10426784;27;20308;-78
2023/08/29 13:25:21;;;;;;;4.20;2.78;;;;;22.40;100581.00;;;;10444970;27;21262;-78
2023/08/29 13:30:23;;;;;;;1.80;1.60;;;;;22.80;100586.00;;;;10439719;27;20314;-77
2023/08/29 13:35:24;;;;;;;1.98;1.48;;;;;22.70;100587.00;;;;10445550;27;21241;-79
2023/08/29 13:40:25;;;;;;;6.03;3.28;;;;;22.30;100593.00;;;;10425371;27;20431;-78
2023/08/29 13:45:27;;;;;;;8.82;4.85;;;;;22.00;100583.00;;;;10430178;27;20200;-78
2023/08/29 13:50:28;;;;;;;7.38;5.03;;;;;21.50;100583.00;;;;10444617;27;21407;-79
2023/08/29 13:55:29;;;;;;;7.40;5.05;;;;;21.20;100582.00;;;;10405299;27;20258;-79
2023/08/29 14:00:31;;;;;;;9.18;5.22;;;;;21.00;100594.00;;;;10441216;27;20313;-80
2023/08/29 14:05:34;;;;;;;7.53;4.97;;;;;21.10;100586.00;;;;10414040;27;21454;-79
2023/08/29 14:10:35;;;;;;;5.45;4.22;;;;;20.90;100580.00;;;;10427086;28;20638;-79
2023/08/29 14:15:37;;;;;;;5.72;3.28;;;;;20.90;100573.00;;;;10445649;27;20216;-79
2023/08/29 14:20:44;;;;;;;7.00;2.30;;;;;21.10;100587.00;;;;10446975;27;20208;-79
2023/08/29 14:25:45;;;;;;;4.85;2.42;;;;;21.30;100582.00;;;;10465952;27;20589;-79
2023/08/29 14:30:48;;;;;;;5.10;3.30;;;;;21.20;100587.00;;;;10414267;27;20247;-79
2023/08/29 14:35:56;;;;;;;5.70;3.08;;;;;21.00;100593.00;;;;10423963;27;20349;-79
2023/08/29 14:41:12;;;;;;;10.43;4.15;;;;;20.80;100582.00;;;;10444580;27;20245;-79
2023/08/29 14:46:14;;;;;;;11.57;4.25;;;;;20.70;100590.00;;;;10424569;27;21438;-79
2023/08/29 14:51:16;;;;;;;7.35;4.20;;;;;21.60;100581.00;;;;10437904;27;20201;-80
2023/08/29 14:56:18;;;;;;;9.30;5.00;;;;;22.00;100583.00;;;;10440597;27;21203;-79
2023/08/29 15:01:19;;;;;;;7.68;4.05;;;;;22.00;100589.00;;;;10440271;27;20614;-78
2023/08/29 15:06:21;;;;;;;7.50;3.88;;;;;21.70;100597.00;;;;10435206;27;20287;-79
2023/08/29 15:11:23;;;;;;;6.40;3.42;;;;;21.60;100583.00;;;;10441812;27;20228;-79
2023/08/29 15:16:24;;;;;;;5.70;3.22;;;;;21.30;100591.00;;;;10421671;27;20219;-80
2023/08/29 15:21:26;;;;;;;4.97;3.20;;;;;21.20;100589.00;;;;10420540;27;20203;-79
2023/08/29 15:26:27;;;;;;;6.70;3.20;;;;;20.90;100582.00;;;;10409586;27;20204;-79
2023/08/29 15:31:28;;;;;;;6.78;2.78;;;;;20.90;100586.00;;;;10444145;27;20262;-80
2023/08/29 15:36:29;;;;;;;5.35;2.95;;;;;20.80;100577.00;;;;10444130;27;20224;-78
2023/08/29 15:41:31;;;;;;;5.85;2.97;;;;;20.50;100579.00;;;;10455060;27;20213;-78
2023/08/29 15:46:32;;;;;;;5.47;2.85;;;;;20.30;100586.00;;;;10433267;27;21368;-78
2023/08/29 15:51:34;;;;;;;5.22;2.65;;;;;20.30;100574.00;;;;10449998;27;20945;-79
2023/08/29 15:56:35;;;;;;;4.70;2.70;;;;;20.20;100568.00;;;;10461043;27;20211;-78
2023/08/29 16:01:36;;;;;;;5.10;2.60;;;;;20.20;100570.00;;;;10464662;27;20195;-78
2023/08/29 16:06:38;;;;;;;4.20;2.65;;;;;20.10;100567.00;;;;10438347;27;20231;-78
2023/08/29 16:11:40;;;;;;;5.47;2.80;;;;;20.10;100564.00;;;;10465557;27;20231;-78
2023/08/29 16:16:42;;;;;;;8.05;2.72;;;;;20.00;100569.00;;;;10468886;27;20247;-78
2023/08/29 16:21:44;;;;;;;8.57;2.80;;;;;20.10;100576.00;;;;10468444;27;20213;-78
2023/08/29 16:26:45;;;;;;;3.88;2.67;;;;;20.00;100574.00;;;;10440758;27;20808;-78
2023/08/29 16:31:47;;;;;;;6.00;2.90;;;;;20.00;100570.00;;;;10473239;27;20244;-78
2023/08/29 16:36:48;;;;;;;6.22;3.20;;;;;20.00;100577.00;;;;10457049;27;20284;-79
2023/08/29 16:41:49;;;;;;;5.50;2.80;;;;;19.80;100583.00;;;;10471797;27;20200;-78
2023/08/29 16:46:51;;;;;;;5.03;2.50;;;;;19.70;100573.00;;;;10457327;27;20208;-78
2023/08/29 16:51:52;;;;;;;5.53;2.90;;;;;19.60;100575.00;;;;10449583;27;20306;-79
2023/08/29 16:56:53;;;;;;;5.90;2.88;;;;;19.50;100577.00;;;;10449534;27;20240;-79
2023/08/29 17:01:55;;;;;;;5.47;3.03;;;;;19.30;100576.00;;;;10452917;27;20211;-78
2023/08/29 17:06:56;;;;;;;6.28;3.08;;;;;19.10;100571.00;;;;10430808;27;20346;-78
2023/08/29 17:11:57;;;;;;;5.57;2.72;;;;;19.00;100569.00;;;;10446686;27;20279;-78
2023/08/29 17:17:00;;;;;;;6.32;2.63;;;;;18.80;100570.00;;;;10404167;27;20224;-78
2023/08/29 17:22:02;;;;;;;4.72;2.92;;;;;18.70;100555.00;;;;10450486;27;20500;-79
2023/08/29 17:27:04;;;;;;;7.60;2.67;;;;;18.50;100573.00;;;;10446052;27;20289;-78
2023/08/29 17:32:06;;;;;;;5.80;2.97;;;;;18.30;100565.00;;;;10473623;27;20209;-78
2023/08/29 17:37:07;;;;;;;4.35;2.53;;;;;18.10;100570.00;;;;10450333;27;20266;-78
2023/08/29 17:42:08;;;;;;;7.82;3.00;;;;;17.80;100572.00;;;;10452230;27;20243;-78
2023/08/29 17:47:10;;;;;;;5.25;2.92;;;;;17.70;100572.00;;;;10453032;27;20201;-78
2023/08/29 17:52:11;;;;;;;3.88;2.78;;;;;17.50;100568.00;;;;10434904;27;21864;-77
2023/08/29 17:57:12;;;;;;;3.10;2.78;;;;;17.30;100570.00;;;;10437649;28;20238;-77
2023/08/29 18:02:15;;;;;;;9.00;3.25;;;;;17.10;100572.00;;;;10454410;27;20210;-78
2023/08/29 18:07:17;;;;;;;6.03;3.30;;;;;16.90;100576.00;;;;10470226;27;20284;-78
2023/08/29 18:12:19;;;;;;;8.57;3.10;;;;;16.70;100571.00;;;;10452996;27;21222;-78
2023/08/29 18:17:20;;;;;;;5.80;3.40;;;;;16.40;100573.00;;;;10469710;27;20238;-78
2023/08/29 18:22:21;;;;;;;8.27;3.83;;;;;16.10;100579.00;;;;10435437;27;21994;-78
2023/08/29 18:27:23;;;;;;;4.70;3.38;;;;;15.90;100571.00;;;;10471989;27;21677;-77
2023/08/29 18:32:25;;;;;;;6.10;4.18;;;;;15.70;100565.00;;;;10456991;28;20264;-78
2023/08/29 18:37:27;;;;;;;4.38;3.40;;;;;15.50;100565.00;;;;10447906;27;20605;-78
2023/08/29 18:42:28;;;;;;;5.97;3.63;;;;;15.30;100567.00;;;;10445176;28;20197;-78
2023/08/29 18:47:30;;;;;;;9.13;5.13;;;;;15.20;100579.00;;;;10445695;27;20200;-78
2023/08/29 18:52:31;;;;;;;7.70;4.40;;;;;15.10;100575.00;;;;10433676;27;20257;-78
2023/08/29 18:57:32;;;;;;;8.85;4.47;;;;;15.20;100581.00;;;;10464896;27;21308;-78
2023/08/29 19:02:34;;;;;;;3.97;3.50;;;;;15.20;100578.00;;;;10449326;27;21547;-78
2023/08/29 19:07:37;;;;;;;5.82;3.50;;;;;15.20;100587.00;;;;10450862;27;20255;-78
2023/08/29 19:12:38;;;;;;;7.32;3.28;;;;;15.00;100587.00;;;;10430255;27;20238;-77
2023/08/29 19:17:39;;;;;;;6.03;4.20;;;;;14.80;100591.00;;;;10418559;27;20929;-77
2023/08/29 19:22:40;;;;;;;8.15;4.85;;;;;14.70;100591.00;;;;10449146;27;20265;-77
2023/08/29 19:27:42;;;;;;;6.68;4.35;;;;;14.60;100593.00;;;;10445438;27;20223;-78
2023/08/29 19:32:44;;;;;;;5.43;4.43;;;;;14.50;100592.00;;;;10454624;27;20246;-77
2023/08/29 19:37:47;;;;;;;7.65;4.90;;;;;14.50;100596.00;;;;10442587;27;20265;-77
2023/08/29 19:42:49;;;;;;;8.13;4.85;;;;;14.60;100587.00;;;;10422278;27;20209;-78
2023/08/29 19:47:50;;;;;;;5.50;4.40;;;;;14.60;100573.00;;;;10420556;27;20231;-78
2023/08/29 19:52:52;;;;;;;7.97;5.10;;;;;14.50;100579.00;;;;10414283;28;20209;-77
2023/08/29 19:57:53;;;;;;;6.18;4.30;;;;;14.40;100573.00;;;;10424374;27;20269;-78
2023/08/29 20:02:54;;;;;;;10.20;4.85;;;;;14.30;100572.00;;;;10436268;28;20193;-77
2023/08/29 20:07:56;;;;;;;7.35;5.05;;;;;14.10;100571.00;;;;10430167;27;20242;-78
2023/08/29 20:13:01;;;;;;;8.80;5.22;;;;;14.00;100563.00;;;;10450143;27;20597;-77
2023/08/29 20:18:03;;;;;;;8.35;5.72;;;;;13.90;100561.00;;;;10435329;27;21820;-78
2023/08/29 20:23:05;;;;;;;10.23;5.30;;;;;13.70;100552.00;;;;10428733;27;20877;-78
2023/08/29 20:28:06;;;;;;;8.83;4.93;;;;;13.60;100548.00;;;;10446570;27;20917;-78
2023/08/29 20:33:08;;;;;;;6.80;5.23;;;;;13.60;100539.00;;;;10426029;27;20221;-77
2023/08/29 20:38:10;;;;;;;5.57;4.50;;;;;13.50;100541.00;;;;10438577;27;20219;-78
2023/08/29 20:43:11;;;;;;;6.70;5.10;;;;;13.40;100550.00;;;;10423277;27;20321;-78
2023/08/29 20:48:13;;;;;;;9.60;5.57;;;;;13.30;100541.00;;;;10406775;27;20243;-78
2023/08/29 20:53:14;;;;;;;7.07;5.33;;;;;13.20;100534.00;;;;10428135;27;20208;-78
2023/08/29 20:58:16;;;;;;;13.77;7.80;;;;;13.10;100540.00;;;;10425441;28;20385;-78
2023/08/29 21:03:17;;;;;;;8.10;5.40;;;;;13.00;100541.00;;;;10421252;27;20204;-78
2023/08/29 21:08:18;;;;;;;7.40;5.10;;;;;12.90;100537.00;;;;10447480;27;20235;-78
2023/08/29 21:13:21;;;;;;;8.90;5.13;;;;;12.80;100531.00;;;;10434121;27;20212;-78
2023/08/29 21:18:23;;;;;;;8.07;6.03;;;;;12.70;100529.00;;;;10433962;27;20914;-78
2023/08/29 21:23:25;;;;;;;8.40;5.47;;;;;12.70;100525.00;;;;10432642;27;21020;-77
2023/08/29 21:28:27;;;;;;;6.30;5.40;;;;;12.90;100522.00;;;;10432412;27;20289;-78
2023/08/29 21:33:28;;;;;;;7.83;5.73;;;;;13.00;100520.00;;;;10412004;27;20753;-78
2023/08/29 21:38:31;;;;;;;6.83;5.43;;;;;13.00;100510.00;;;;10448104;27;20440;-78
2023/08/29 21:43:32;;;;;;;7.60;5.63;;;;;13.00;100517.00;;;;10416642;27;20209;-78
2023/08/29 21:48:34;;;;;;;9.00;6.37;;;;;13.00;100505.00;;;;10416549;27;20439;-78
2023/08/29 21:53:36;;;;;;;9.33;5.70;;;;;13.00;100507.00;;;;10431601;27;20208;-78
2023/08/29 21:58:37;;;;;;;11.63;7.37;;;;;12.90;100497.00;;;;10448854;27;20204;-78
2023/08/29 22:03:39;;;;;;;7.53;6.03;;;;;12.80;100483.00;;;;10450663;27;20816;-77
2023/08/29 22:08:40;;;;;;;7.83;6.07;;;;;12.70;100481.00;;;;10447529;27;20204;-78
2023/08/29 22:13:41;;;;;;;9.50;5.57;;;;;12.70;100482.00;;;;10433788;27;20883;-78
2023/08/29 22:18:43;;;;;;;10.03;6.33;;;;;12.60;100476.00;;;;10430770;27;20313;-77
2023/08/29 22:23:44;;;;;;;8.63;5.50;;;;;12.60;100474.00;;;;10449651;27;20201;-77
2023/08/29 22:28:46;;;;;;;7.53;5.70;;;;;12.60;100470.00;;;;10449911;27;21090;-78
2023/08/29 22:33:47;;;;;;;7.70;5.40;;;;;12.70;100465.00;;;;10395701;27;20236;-78
2023/08/29 22:38:49;;;;;;;11.27;5.73;;;;;12.80;100457.00;;;;10429630;27;20558;-78
2023/08/29 22:43:51;;;;;;;9.17;5.60;;;;;12.80;100455.00;;;;10426175;27;21619;-78
2023/08/29 22:48:53;;;;;;;8.37;5.50;;;;;12.70;100444.00;;;;10430963;27;20200;-78
2023/08/29 22:53:57;;;;;;;7.43;5.63;;;;;12.60;100443.00;;;;10431910;27;20209;-78
2023/08/29 22:58:58;;;;;;;6.70;5.67;;;;;12.50;100432.00;;;;10428554;27;22337;-78
2023/08/29 23:03:59;;;;;;;8.43;5.60;;;;;12.50;100422.00;;;;10429119;28;20721;-77
2023/08/29 23:09:00;;;;;;;9.60;5.17;;;;;12.50;100427.00;;;;10433442;27;20282;-78
2023/08/29 23:14:03;;;;;;;9.57;5.40;;;;;12.50;100423.00;;;;10448004;27;20312;-78
2023/08/29 23:19:05;;;;;;;8.40;5.00;;;;;12.50;100421.00;;;;10445267;27;20300;-78
2023/08/29 23:24:06;;;;;;;6.50;5.43;;;;;12.40;100421.00;;;;10427187;27;23602;-78
2023/08/29 23:29:10;;;;;;;5.93;5.20;;;;;12.30;100417.00;;;;10431938;27;20249;-79
2023/08/29 23:34:12;;;;;;;5.63;4.60;;;;;12.20;100414.00;;;;10425258;27;20233;-77
2023/08/29 23:39:14;;;;;;;8.10;4.83;;;;;12.20;100416.00;;;;10430155;27;20418;-78
2023/08/29 23:44:15;;;;;;;7.30;4.70;;;;;12.10;100408.00;;;;10449078;27;20219;-79
2023/08/29 23:49:16;;;;;;;8.00;4.93;;;;;12.10;100398.00;;;;10411447;27;20209;-77
2023/08/29 23:54:18;;;;;;;8.63;4.73;;;;;12.20;100387.00;;;;10429897;27;20208;-78
2023/08/29 23:59:19;;;;;;;10.87;5.63;;;;;12.30;100389.00;;;;10450255;27;20366;-77
